Edwards, CO (81632)

3:57 AM MST on February 07, 2016 (GMT -0700)
Edwards CO | | Change Station
CLOSE
Current Station
Personal Weather Station
Location: Edwards, CO
Elevation: 7152 ft
Nearby Weather Stations

Elev 7152 ft 39.65 °N, 106.62 °W | Updated 18 seconds ago

Clear
Clear
5.5 °F
Feels Like 6 °F
N
0.7
Wind Variable Wind from NNW
Gusts 2.2 mph

Today
High -- | Low -- °F
--% Chance of Precip.
Yesterday
High -- | Low -- °F
Precip. -- in
Pressure 30.44 in
Visibility 10.0 miles
Clouds Clear
Windchill 6 °F
Dew Point -4 °F
Humidity 62%
Rainfall 0.00 in
Snow Depth Not available.
7:08 AM 5:32 PM
Waning Crescent, 2% visible
METAR KEGE 071055Z AUTO 00000KT 10SM CLR M15/M16 A3044 RMK AO1
Pressure 30.44 in
Visibility 10.0 miles
Clouds Clear
Windchill 6 °F
Dew Point -4 °F
Humidity 62%
Rainfall 0.00 in
Snow Depth Not available.
7:08 AM 5:32 PM
Waning Crescent, 2% visible
METAR KEGE 071055Z AUTO 00000KT 10SM CLR M15/M16 A3044 RMK AO1

10-Day Weather Forecast

Almanac

Astronomy

Feb. 07, 2016 Rise Set
Actual Time
Civil Twilight
Nautical Twilight
Astronomical Twilight
Moon
Length of Visible Light
Length of Day
Tomorrow will be .
, % of the Moon is Illuminated

Today's Extremes

State Highs State Lows

Community

WunderPhotos

Upload Photos

1,891,171 photos uploaded!

WunderBlog® & News

Nearby

Air Quality

  Air Quality AQ Index Pollutant
Not available.

Snow Depth

Station Depth Elevation

Earthquake Activity

City Distance Mag. Time & Date
Minimum magnitude displayed is 2.5.

Coastal Water Temperatures

Place Temperature

Stations

Nearby Weather Stations

Station Location Temp. Windchill Dew Point Humidity Wind Precip. Elev Updated Type
                   

Watches & Warnings

There are currently no watches in effect.